Time;durP1;ratioP1;P1;durP2;ratioP2;P2;SDS_P1;SDS_P2;PMS_P1;PMS_P2;Temp;Humidity;BMP_temperature;BMP_pressure;BME280_temperature;BME280_humidity;BME280_pressure;Samples;Min_cycle;Max_cycle;Signal;HPM_P1;HPM_P2
2021/10/05 00:02:11;;;;;;;5.25;3.10;;;;;;;11.93;71.29;100124.03;5054166;28;20060;-58
2021/10/05 00:04:38;;;;;;;4.78;3.40;;;;;;;11.93;71.36;100124.03;5067909;28;20518;-59
2021/10/05 00:07:05;;;;;;;4.43;3.05;;;;;;;11.92;71.53;100134.34;5073829;28;20398;-59
2021/10/05 00:09:33;;;;;;;5.50;3.20;;;;;;;11.92;71.39;100133.53;5073834;28;20062;-60
2021/10/05 00:12:01;;;;;;;4.45;2.72;;;;;;;11.91;71.92;100127.13;5073550;28;20079;-60
2021/10/05 00:14:28;;;;;;;4.80;2.67;;;;;;;11.88;72.11;100138.09;5073843;28;20056;-60
2021/10/05 00:17:03;;;;;;;5.20;2.17;;;;;;;11.88;72.10;100115.78;5073239;28;20100;-59
2021/10/05 00:19:31;;;;;;;3.40;2.42;;;;;;;11.89;72.36;100126.66;5073109;28;20061;-59
2021/10/05 00:21:58;;;;;;;3.33;2.20;;;;;;;11.89;72.14;100120.25;5073519;28;20064;-60
2021/10/05 00:24:25;;;;;;;2.75;2.20;;;;;;;11.90;72.27;100124.66;5072724;28;20072;-60
2021/10/05 00:26:53;;;;;;;3.72;2.35;;;;;;;11.88;72.00;100111.03;5073531;28;20059;-60
2021/10/05 00:29:20;;;;;;;4.85;2.85;;;;;;;11.83;72.35;100108.41;5073545;28;20056;-60
2021/10/05 00:31:47;;;;;;;5.15;3.22;;;;;;;11.85;71.47;100099.72;5073669;28;20395;-60
2021/10/05 00:34:16;;;;;;;4.15;3.13;;;;;;;11.78;71.40;100091.84;5072900;28;20056;-60
2021/10/05 00:36:43;;;;;;;5.72;3.28;;;;;;;11.72;71.48;100102.34;5071886;28;20075;-60
2021/10/05 00:39:11;;;;;;;4.57;3.20;;;;;;;11.66;71.36;100100.06;5082097;28;20060;-59
2021/10/05 00:41:38;;;;;;;5.15;3.00;;;;;;;11.63;71.32;100093.16;5092899;28;20063;-60
2021/10/05 00:44:06;;;;;;;6.55;3.58;;;;;;;11.61;71.80;100100.22;5092946;28;20051;-58
2021/10/05 00:46:35;;;;;;;4.13;3.03;;;;;;;11.57;71.94;100105.69;5093330;28;20052;-60
2021/10/05 00:49:03;;;;;;;4.65;3.30;;;;;;;11.56;72.30;100098.44;5093254;28;20060;-60
2021/10/05 00:51:32;;;;;;;4.45;3.20;;;;;;;11.56;72.44;100098.44;5093388;28;20403;-60
2021/10/05 00:54:00;;;;;;;5.30;3.58;;;;;;;11.54;72.65;100101.56;5077778;28;20410;-60
2021/10/05 00:56:27;;;;;;;5.65;3.65;;;;;;;11.53;73.04;100099.13;5072838;28;20052;-60
2021/10/05 00:58:55;;;;;;;4.55;3.10;;;;;;;11.53;73.17;100090.75;5072654;28;20052;-60
2021/10/05 01:01:22;;;;;;;5.85;3.40;;;;;;;11.51;72.91;100081.88;5072409;28;20075;-60
2021/10/05 01:03:49;;;;;;;5.10;3.10;;;;;;;11.52;72.72;100073.16;5072305;28;20056;-60
2021/10/05 01:06:19;;;;;;;5.65;3.20;;;;;;;11.50;73.02;100083.03;5072645;28;20071;-60
2021/10/05 01:08:47;;;;;;;4.20;3.05;;;;;;;11.54;72.87;100075.63;5073140;28;20057;-60
2021/10/05 01:11:15;;;;;;;4.15;3.35;;;;;;;11.54;72.45;100061.69;5072039;28;20068;-59
2021/10/05 01:13:42;;;;;;;4.13;2.90;;;;;;;11.50;72.93;100058.72;5072789;28;20068;-60
2021/10/05 01:16:09;;;;;;;4.40;3.03;;;;;;;11.52;73.23;100052.84;5071809;28;20056;-59
2021/10/05 01:18:39;;;;;;;4.07;3.20;;;;;;;11.58;73.09;100057.09;5072489;28;20052;-60
2021/10/05 01:21:08;;;;;;;3.28;2.85;;;;;;;11.55;73.06;100053.00;5072381;28;20060;-60
2021/10/05 01:23:37;;;;;;;5.13;3.28;;;;;;;11.57;72.96;100038.72;5072222;28;20434;-61
2021/10/05 01:26:04;;;;;;;3.88;3.05;;;;;;;11.59;72.98;100036.44;5059760;28;20506;-60
2021/10/05 01:28:32;;;;;;;4.60;3.45;;;;;;;11.62;73.05;100034.94;5052218;28;20064;-58
2021/10/05 01:31:00;;;;;;;4.75;2.95;;;;;;;11.64;73.29;100027.06;5052129;28;20060;-59
2021/10/05 01:33:29;;;;;;;3.92;2.85;;;;;;;11.64;73.15;100025.06;5052704;28;20063;-60
2021/10/05 01:35:57;;;;;;;4.18;3.10;;;;;;;11.57;73.60;100028.38;5061647;28;20052;-59
2021/10/05 01:38:26;;;;;;;3.33;2.83;;;;;;;11.63;73.14;100014.25;5071619;28;20426;-60
2021/10/05 01:40:54;;;;;;;4.73;2.93;;;;;;;11.61;72.86;100011.78;5072169;28;20083;-60
2021/10/05 01:43:21;;;;;;;4.18;2.92;;;;;;;11.61;72.73;100006.19;5072528;28;20825;-60
2021/10/05 01:45:49;;;;;;;3.30;2.90;;;;;;;11.61;72.44;100000.63;5072350;28;20514;-59
2021/10/05 01:48:17;;;;;;;4.15;2.92;;;;;;;11.60;72.44;99999.00;5072502;28;20063;-58
2021/10/05 01:50:45;;;;;;;4.32;3.17;;;;;;;11.60;72.52;99999.00;5072094;28;20060;-60
2021/10/05 01:53:12;;;;;;;4.18;3.20;;;;;;;11.54;72.99;100003.13;5071450;28;20051;-60
2021/10/05 01:55:41;;;;;;;5.35;3.40;;;;;;;11.49;73.04;100001.34;5071232;28;20063;-60
2021/10/05 01:58:08;;;;;;;3.70;3.17;;;;;;;11.49;73.00;99992.97;5072131;28;20367;-60
2021/10/05 02:00:36;;;;;;;5.00;3.38;;;;;;;11.51;72.95;99981.47;5072058;28;20063;-60
2021/10/05 02:03:03;;;;;;;6.03;3.28;;;;;;;11.54;72.97;99989.16;5071448;28;20410;-61
2021/10/05 02:05:31;;;;;;;3.88;2.90;;;;;;;11.53;73.17;99977.19;5071886;28;20061;-60
2021/10/05 02:07:58;;;;;;;3.70;2.42;;;;;;;11.54;73.07;99983.59;5072426;28;20059;-60
2021/10/05 02:10:26;;;;;;;3.83;2.47;;;;;;;11.54;73.34;99980.81;5072048;28;20052;-59
2021/10/05 02:12:54;;;;;;;4.43;2.55;;;;;;;11.53;73.06;99976.38;5072292;28;20061;-59
2021/10/05 02:15:24;;;;;;;3.38;2.75;;;;;;;11.56;73.39;99959.78;5071994;28;20056;-59
2021/10/05 02:17:51;;;;;;;4.57;2.88;;;;;;;11.60;73.18;99964.72;5071870;28;20060;-60
2021/10/05 02:20:19;;;;;;;4.43;2.83;;;;;;;11.58;73.30;99951.09;5071716;28;20064;-60
2021/10/05 02:22:48;;;;;;;4.78;2.80;;;;;;;11.57;73.94;99943.88;5071992;28;20501;-60
2021/10/05 02:25:15;;;;;;;3.28;2.72;;;;;;;11.62;73.43;99946.47;5070839;28;20049;-60
2021/10/05 02:27:43;;;;;;;3.70;2.70;;;;;;;11.63;73.48;99934.16;5072107;28;20048;-60
2021/10/05 02:30:12;;;;;;;4.45;2.70;;;;;;;11.67;73.88;99945.47;5071711;28;20056;-60
2021/10/05 02:32:41;;;;;;;4.85;2.92;;;;;;;11.67;74.09;99932.34;5071818;28;20059;-60
2021/10/05 02:35:10;;;;;;;3.53;3.15;;;;;;;11.71;74.24;99927.72;5071564;28;20056;-60
2021/10/05 02:37:38;;;;;;;4.25;3.20;;;;;;;11.72;74.74;99917.41;5071360;28;20064;-59
2021/10/05 02:40:09;;;;;;;4.18;3.10;;;;;;;11.74;74.44;99921.50;5070820;28;20499;-60
2021/10/05 02:42:37;;;;;;;4.57;2.92;;;;;;;11.78;74.47;99922.47;5072162;28;20053;-60
2021/10/05 02:45:08;;;;;;;4.25;3.03;;;;;;;11.84;73.97;99925.03;5071467;28;20057;-59
2021/10/05 02:47:37;;;;;;;5.03;2.83;;;;;;;11.77;72.89;99917.19;5071687;28;20486;-60
2021/10/05 02:50:06;;;;;;;3.97;3.10;;;;;;;11.79;72.29;99923.25;5071496;28;20052;-59
2021/10/05 02:52:33;;;;;;;5.35;3.00;;;;;;;11.78;72.46;99916.88;5071847;28;20052;-60
2021/10/05 02:55:00;;;;;;;4.70;2.90;;;;;;;11.78;72.67;99916.06;5070954;28;20075;-60
2021/10/05 02:57:27;;;;;;;4.53;2.78;;;;;;;11.77;72.83;99911.63;5072090;28;20060;-60
2021/10/05 02:59:55;;;;;;;5.45;3.20;;;;;;;11.73;72.64;99900.31;5072014;28;20065;-60
2021/10/05 03:02:22;;;;;;;4.35;3.15;;;;;;;11.75;72.69;99889.63;5071968;28;20053;-60
2021/10/05 03:04:51;;;;;;;3.60;3.05;;;;;;;11.76;72.87;99896.84;5071502;28;20063;-60
2021/10/05 03:07:18;;;;;;;4.47;3.30;;;;;;;11.77;72.67;99892.91;5071420;28;20388;-60
2021/10/05 03:09:46;;;;;;;4.35;3.42;;;;;;;11.78;73.19;99879.78;5071987;28;20056;-60
2021/10/05 03:12:15;;;;;;;3.72;3.30;;;;;;;11.78;72.88;99877.81;5071847;28;20403;-60
2021/10/05 03:14:45;;;;;;;4.65;3.20;;;;;;;11.70;73.33;99875.88;5072123;28;20509;-60
2021/10/05 03:17:15;;;;;;;6.47;3.40;;;;;;;11.73;73.36;99868.81;5073559;28;20075;-60
2021/10/05 03:19:42;;;;;;;5.50;3.67;;;;;;;11.65;74.05;99873.28;5075241;28;20075;-61
2021/10/05 03:22:11;;;;;;;4.43;3.70;;;;;;;11.60;74.70;99870.69;5074984;28;20059;-61
2021/10/05 03:24:40;;;;;;;4.03;3.20;;;;;;;11.64;74.27;99866.06;5073573;28;20056;-60
2021/10/05 03:27:10;;;;;;;3.88;3.47;;;;;;;11.69;74.26;99874.22;5074715;28;20486;-60
2021/10/05 03:29:38;;;;;;;4.97;3.60;;;;;;;11.73;73.84;99852.06;5074821;28;20491;-59
2021/10/05 03:32:06;;;;;;;5.25;3.38;;;;;;;11.76;74.07;99857.78;5074733;28;20060;-60
2021/10/05 03:34:33;;;;;;;4.28;3.15;;;;;;;11.77;73.97;99841.88;5075096;28;20060;-60
2021/10/05 03:37:00;;;;;;;5.35;3.67;;;;;;;11.77;73.77;99842.69;5074661;28;20052;-60
2021/10/05 03:39:29;;;;;;;5.88;4.03;;;;;;;11.81;73.78;99842.81;5074495;28;20067;-59
2021/10/05 03:41:57;;;;;;;5.03;4.53;;;;;;;11.83;73.79;99836.91;5075197;28;20056;-60
2021/10/05 03:44:24;;;;;;;6.00;3.20;;;;;;;11.85;73.95;99823.44;5074472;28;20052;-59
2021/10/05 03:46:51;;;;;;;4.03;2.53;;;;;;;11.87;73.82;99823.94;5074647;28;20379;-60
2021/10/05 03:49:19;;;;;;;3.88;3.20;;;;;;;11.83;73.39;99817.38;5074333;28;20052;-60
2021/10/05 03:51:50;;;;;;;5.18;3.90;;;;;;;11.85;72.97;99821.47;5074722;28;20053;-58
2021/10/05 03:54:18;;;;;;;4.15;2.40;;;;;;;11.84;72.79;99819.81;5073755;28;20048;-60
2021/10/05 03:56:46;;;;;;;3.70;3.33;;;;;;;11.75;74.00;99822.66;5074458;28;20060;-60
2021/10/05 03:59:16;;;;;;;5.60;3.37;;;;;;;11.76;73.81;99818.75;5054718;28;20049;-60
2021/10/05 04:01:44;;;;;;;;;;;;;;;11.73;74.13;99818.59;5069848;28;20479;-60
2021/10/05 04:04:11;;;;;;;5.80;3.58;;;;;;;11.74;73.84;99821.03;5074558;28;19927;-60
2021/10/05 04:06:39;;;;;;;4.90;4.35;;;;;;;11.75;74.08;99814.28;5074641;28;20052;-59
2021/10/05 04:09:06;;;;;;;4.82;4.40;;;;;;;11.74;74.69;99809.06;5074180;28;20060;-60
2021/10/05 04:11:35;;;;;;;6.13;4.63;;;;;;;11.76;74.94;99813.16;5073755;28;20391;-60
2021/10/05 04:14:04;;;;;;;5.38;4.03;;;;;;;11.84;74.25;99813.41;5074473;28;20056;-61
2021/10/05 04:16:31;;;;;;;5.05;4.07;;;;;;;11.84;73.89;99810.63;5074121;28;20468;-60
2021/10/05 04:18:59;;;;;;;4.40;3.58;;;;;;;11.81;73.74;99806.56;5074177;28;20060;-59
2021/10/05 04:21:26;;;;;;;5.05;3.65;;;;;;;11.79;73.08;99806.06;5074049;28;20436;-59
2021/10/05 04:23:53;;;;;;;4.13;3.50;;;;;;;11.74;73.24;99797.91;5073766;28;20049;-60
2021/10/05 04:26:21;;;;;;;5.32;4.00;;;;;;;11.71;73.29;99793.00;5073875;28;20048;-60
2021/10/05 04:28:48;;;;;;;6.25;4.40;;;;;;;11.73;73.43;99793.47;5074121;28;20049;-59
2021/10/05 04:31:17;;;;;;;7.30;4.10;;;;;;;11.67;73.53;99792.03;5073972;28;20056;-60
2021/10/05 04:33:44;;;;;;;5.18;4.28;;;;;;;11.66;73.53;99785.66;5074223;28;20071;-60
2021/10/05 04:36:11;;;;;;;6.65;5.05;;;;;;;11.66;73.38;99785.66;5073565;28;20060;-60
2021/10/05 04:38:39;;;;;;;7.20;5.57;;;;;;;11.65;73.69;99781.22;5072920;28;20391;-59
2021/10/05 04:41:06;;;;;;;6.70;4.90;;;;;;;11.67;73.64;99778.09;5073329;28;20044;-59
2021/10/05 04:43:33;;;;;;;7.35;6.25;;;;;;;11.66;74.31;99770.91;5073694;28;20080;-59
2021/10/05 04:46:03;;;;;;;6.40;5.50;;;;;;;11.64;73.84;99771.22;5073819;28;20513;-59
2021/10/05 04:48:32;;;;;;;7.07;5.28;;;;;;;11.63;73.83;99769.56;5073453;28;20096;-59
2021/10/05 04:50:59;;;;;;;6.30;4.68;;;;;;;11.50;74.47;99765.09;5073643;28;20053;-59
2021/10/05 04:53:26;;;;;;;7.13;5.78;;;;;;;11.58;74.25;99767.81;5073106;28;20411;-59
2021/10/05 04:55:54;;;;;;;7.00;5.75;;;;;;;11.54;74.28;99757.69;5073530;28;20056;-58
2021/10/05 04:58:21;;;;;;;8.68;6.15;;;;;;;11.56;74.22;99753.38;5073436;28;20486;-59
2021/10/05 05:00:50;;;;;;;7.03;6.15;;;;;;;11.59;74.10;99754.69;5073800;28;20053;-59
2021/10/05 05:03:17;;;;;;;8.90;6.30;;;;;;;11.59;74.25;99749.13;5073287;28;20511;-59
2021/10/05 05:05:46;;;;;;;7.97;7.03;;;;;;;11.62;74.08;99742.03;5073401;28;20418;-59
2021/10/05 05:08:13;;;;;;;6.90;6.20;;;;;;;11.60;73.97;99739.59;5072806;28;20052;-59
2021/10/05 05:10:41;;;;;;;7.70;6.53;;;;;;;11.58;74.32;99742.72;5072348;28;20061;-59
2021/10/05 05:13:08;;;;;;;8.10;6.50;;;;;;;11.60;73.93;99736.78;5072372;28;20057;-60
2021/10/05 05:15:36;;;;;;;7.70;6.20;;;;;;;11.60;73.97;99736.78;5072336;28;20391;-60
2021/10/05 05:18:03;;;;;;;12.75;7.10;;;;;;;11.59;73.53;99740.75;5071885;28;20053;-60
2021/10/05 05:20:31;;;;;;;8.63;6.47;;;;;;;11.58;73.79;99737.13;5071953;28;20089;-60
2021/10/05 05:22:59;;;;;;;9.40;7.00;;;;;;;11.58;73.71;99727.94;5062810;28;20052;-59
2021/10/05 05:25:27;;;;;;;10.50;7.30;;;;;;;11.54;73.84;99727.00;5070020;28;20056;-60
2021/10/05 05:27:54;;;;;;;7.93;7.00;;;;;;;11.58;73.67;99722.38;5071969;28;20056;-60
2021/10/05 05:30:21;;;;;;;9.13;6.75;;;;;;;11.53;73.80;99722.59;5072465;28;20056;-60
2021/10/05 05:32:49;;;;;;;8.10;6.30;;;;;;;11.54;74.06;99707.47;5072463;28;20048;-60
2021/10/05 05:35:16;;;;;;;6.85;5.75;;;;;;;11.53;74.30;99715.03;5072218;28;20056;-60
2021/10/05 05:37:43;;;;;;;7.68;5.78;;;;;;;11.56;74.31;99716.31;5073061;28;20049;-61
2021/10/05 05:40:13;;;;;;;8.25;5.82;;;;;;;11.56;74.36;99717.13;5071508;28;20063;-61
2021/10/05 05:42:41;;;;;;;8.73;6.10;;;;;;;11.60;74.52;99716.47;5071470;28;20075;-61
2021/10/05 05:45:08;;;;;;;8.10;5.55;;;;;;;11.63;74.59;99702.63;5072478;28;20053;-61
2021/10/05 05:47:37;;;;;;;7.05;5.35;;;;;;;11.65;74.60;99702.28;5071982;28;20063;-60
2021/10/05 05:50:05;;;;;;;7.55;5.30;;;;;;;11.68;74.41;99704.41;5071049;28;20044;-60
2021/10/05 05:52:33;;;;;;;7.80;5.10;;;;;;;11.68;74.73;99693.25;5071252;28;20056;-58
2021/10/05 05:55:00;;;;;;;6.50;5.35;;;;;;;11.74;74.85;99689.13;5070489;28;20063;-59
2021/10/05 05:57:29;;;;;;;6.22;5.10;;;;;;;11.83;74.14;99701.00;5071068;28;20503;-60
2021/10/05 05:59:58;;;;;;;5.38;4.53;;;;;;;11.87;74.48;99695.56;5071048;28;20052;-60
2021/10/05 06:02:26;;;;;;;6.03;5.20;;;;;;;11.85;74.58;99686.72;5071026;28;20053;-59
2021/10/05 06:04:53;;;;;;;5.25;4.60;;;;;;;11.91;74.88;99693.75;5069791;28;20057;-59
2021/10/05 06:07:20;;;;;;;6.68;5.25;;;;;;;11.98;74.53;99686.44;5070114;28;20056;-59
2021/10/05 06:09:47;;;;;;;6.63;4.95;;;;;;;11.95;74.42;99689.13;5071303;28;20052;-60
2021/10/05 06:12:18;;;;;;;6.78;4.97;;;;;;;11.98;74.68;99688.41;5071853;28;20063;-59
2021/10/05 06:14:48;;;;;;;6.18;5.13;;;;;;;12.09;74.21;99675.66;5071475;28;20048;-59
2021/10/05 06:17:15;;;;;;;8.10;5.47;;;;;;;12.18;73.40;99676.41;5071389;28;20059;-58
2021/10/05 06:19:46;;;;;;;8.70;5.32;;;;;;;12.12;72.84;99676.97;5070513;28;20048;-59
2021/10/05 06:22:13;;;;;;;7.75;6.13;;;;;;;12.21;72.61;99674.88;5071295;28;20438;-59
2021/10/05 06:24:40;;;;;;;11.90;6.30;;;;;;;12.29;72.42;99671.19;5072075;28;20083;-59
2021/10/05 06:27:07;;;;;;;8.85;5.93;;;;;;;12.28;72.17;99672.31;5072542;28;20056;-60
2021/10/05 06:29:35;;;;;;;8.80;6.00;;;;;;;12.36;71.73;99667.81;5070978;28;20060;-59
2021/10/05 06:32:05;;;;;;;7.75;4.80;;;;;;;12.27;72.80;99664.31;5072122;28;20387;-60
2021/10/05 06:34:33;;;;;;;6.50;5.10;;;;;;;12.36;72.69;99645.47;5069675;28;20055;-60
2021/10/05 06:37:00;;;;;;;6.30;4.55;;;;;;;12.46;72.25;99653.41;5069937;28;20048;-59
2021/10/05 06:39:27;;;;;;;7.28;5.03;;;;;;;12.55;72.27;99654.09;5070347;28;20048;-59
2021/10/05 06:41:55;;;;;;;7.53;4.57;;;;;;;12.65;72.53;99652.03;5070854;28;20079;-57
2021/10/05 06:44:22;;;;;;;4.97;4.20;;;;;;;12.77;72.27;99650.03;5070817;28;20052;-59
2021/10/05 06:46:50;;;;;;;5.25;4.45;;;;;;;12.81;72.18;99661.34;5069949;28;20063;-59
2021/10/05 06:49:18;;;;;;;5.50;4.90;;;;;;;12.91;71.16;99646.06;5070134;28;20414;-59
2021/10/05 06:51:46;;;;;;;5.55;4.75;;;;;;;12.96;70.88;99651.44;5071231;28;20052;-59
2021/10/05 06:54:14;;;;;;;8.95;5.28;;;;;;;13.10;70.61;99657.50;5065535;28;20455;-59
2021/10/05 06:56:41;;;;;;;5.65;4.93;;;;;;;13.20;69.78;99648.59;5070299;28;20059;-60
2021/10/05 06:59:08;;;;;;;4.70;4.03;;;;;;;13.27;70.13;99642.44;5061198;28;20057;-60
2021/10/05 07:01:36;;;;;;;6.22;5.63;;;;;;;13.47;69.01;99648.22;5068244;28;20053;-60
2021/10/05 07:04:03;;;;;;;9.48;6.68;;;;;;;13.59;68.66;99640.59;5071340;28;20055;-60
2021/10/05 07:06:32;;;;;;;6.82;5.13;;;;;;;13.73;68.37;99637.41;5068396;28;20064;-60
2021/10/05 07:08:59;;;;;;;5.93;4.77;;;;;;;13.94;68.50;99639.16;5070690;28;20049;-60
2021/10/05 07:11:27;;;;;;;5.85;4.47;;;;;;;14.06;68.14;99636.31;5059821;28;20057;-59
2021/10/05 07:13:54;;;;;;;4.57;4.07;;;;;;;14.20;67.70;99631.09;5068847;28;20071;-59
2021/10/05 07:16:24;;;;;;;4.57;3.88;;;;;;;14.38;67.12;99630.75;5069552;28;20053;-59
2021/10/05 07:18:51;;;;;;;5.03;4.15;;;;;;;14.61;66.80;99628.16;5070082;28;20400;-57
2021/10/05 07:21:20;;;;;;;5.35;3.58;;;;;;;14.80;66.41;99622.63;5062488;28;20071;-60
2021/10/05 07:23:49;;;;;;;4.35;2.97;;;;;;;14.83;65.44;99615.47;5064495;28;20063;-60
2021/10/05 07:26:17;;;;;;;3.55;2.70;;;;;;;15.05;64.54;99615.97;5056405;28;20120;-60
2021/10/05 07:28:45;;;;;;;3.85;2.70;;;;;;;15.26;63.56;99608.03;5071329;28;20066;-60
2021/10/05 07:31:12;;;;;;;3.38;2.72;;;;;;;15.32;63.23;99614.16;5068481;28;20048;-60
2021/10/05 07:33:40;;;;;;;4.05;2.83;;;;;;;15.52;62.99;99603.78;5066721;28;20060;-60
2021/10/05 07:36:07;;;;;;;4.28;3.20;;;;;;;16.15;61.23;99589.38;5066504;28;20612;-60
2021/10/05 07:38:36;;;;;;;3.55;2.53;;;;;;;16.62;59.38;99592.97;5065053;28;20071;-60
2021/10/05 07:41:05;;;;;;;3.42;2.55;;;;;;;17.00;58.50;99585.56;5068442;28;20052;-60
2021/10/05 07:43:33;;;;;;;2.88;2.13;;;;;;;17.18;57.19;99591.44;5069059;28;20056;-60
2021/10/05 07:46:00;;;;;;;3.15;2.28;;;;;;;17.34;56.56;99577.97;5068790;28;20056;-59
2021/10/05 07:48:29;;;;;;;2.88;2.33;;;;;;;17.43;56.18;99580.53;5071232;28;20503;-60
2021/10/05 07:50:56;;;;;;;2.88;2.40;;;;;;;17.61;55.22;99580.72;5070470;28;20052;-60
2021/10/05 07:53:26;;;;;;;3.20;2.30;;;;;;;17.94;54.45;99570.66;5068927;28;20061;-59
2021/10/05 07:55:53;;;;;;;;;;;;;;;18.12;54.16;99568.84;5058422;28;20408;-60
2021/10/05 07:58:22;;;;;;;2.50;1.90;;;;;;;18.86;51.58;99567.06;5068451;28;19928;-60
2021/10/05 08:00:49;;;;;;;4.32;2.10;;;;;;;20.02;49.96;99566.38;5054961;28;20068;-59
2021/10/05 08:03:17;;;;;;;2.35;2.03;;;;;;;21.80;46.30;99558.81;5068336;28;20051;-60
2021/10/05 08:05:44;;;;;;;3.28;1.50;;;;;;;21.97;44.47;99559.13;5071826;28;20049;-60
2021/10/05 08:08:11;;;;;;;2.13;1.60;;;;;;;22.81;42.15;99553.22;5060211;28;20072;-60
2021/10/05 08:10:41;;;;;;;4.10;1.92;;;;;;;23.39;41.33;99550.59;5064661;28;20060;-61
2021/10/05 08:13:10;;;;;;;2.22;1.40;;;;;;;23.94;39.42;99539.31;5065492;28;20052;-60
2021/10/05 08:15:39;;;;;;;3.42;1.38;;;;;;;24.37;38.71;99548.00;5067434;28;20060;-61
2021/10/05 08:18:07;;;;;;;1.60;1.20;;;;;;;23.36;38.87;99554.28;5069377;28;21265;-57
2021/10/05 08:20:34;;;;;;;3.08;1.10;;;;;;;23.18;39.19;99547.97;5067410;28;20075;-60
2021/10/05 08:23:02;;;;;;;1.38;0.80;;;;;;;22.23;40.20;99552.88;5070778;28;20132;-60
2021/10/05 08:25:29;;;;;;;2.67;1.00;;;;;;;21.52;42.42;99547.63;5059766;28;20061;-60
2021/10/05 08:27:56;;;;;;;1.35;0.80;;;;;;;21.14;42.70;99547.31;5068463;28;20486;-60
2021/10/05 08:30:24;;;;;;;2.15;0.85;;;;;;;21.08;43.04;99536.44;5066725;28;20048;-60
2021/10/05 08:32:55;;;;;;;1.45;0.80;;;;;;;21.59;41.86;99537.06;5071139;28;20048;-60
2021/10/05 08:35:23;;;;;;;1.70;0.98;;;;;;;21.66;42.02;99539.06;5066094;28;20049;-60
2021/10/05 08:37:52;;;;;;;3.40;1.00;;;;;;;21.83;41.15;99535.31;5069325;28;20056;-60
2021/10/05 08:40:20;;;;;;;1.75;1.10;;;;;;;21.81;41.26;99532.06;5069133;28;20060;-60
2021/10/05 08:42:47;;;;;;;1.80;0.80;;;;;;;21.81;41.17;99532.06;5069022;28;20505;-60
2021/10/05 08:45:15;;;;;;;2.00;1.08;;;;;;;21.74;41.68;99529.28;5071398;28;20079;-61
2021/10/05 08:47:42;;;;;;;2.88;0.90;;;;;;;21.36;42.70;99526.22;5060325;28;20048;-59
2021/10/05 08:50:12;;;;;;;2.08;1.08;;;;;;;20.91;42.93;99530.81;5067320;28;20057;-59
2021/10/05 08:52:39;;;;;;;1.58;1.00;;;;;;;20.63;44.03;99521.97;5066776;28;20064;-60
2021/10/05 08:55:08;;;;;;;1.52;1.10;;;;;;;21.17;42.96;99524.66;5068917;28;20060;-59
2021/10/05 08:57:35;;;;;;;3.25;0.93;;;;;;;20.92;43.06;99516.25;5062023;28;20060;-60
2021/10/05 09:00:05;;;;;;;1.65;0.82;;;;;;;20.19;44.98;99520.34;5063787;28;20053;-60
2021/10/05 09:02:43;;;;;;;2.25;0.90;;;;;;;19.34;46.39;99520.91;5061092;28;20049;-60
2021/10/05 09:05:14;;;;;;;2.15;1.20;;;;;;;19.39;46.98;99529.03;5065118;28;20057;-60
2021/10/05 09:07:44;;;;;;;1.50;1.08;;;;;;;19.47;46.46;99517.34;5062556;28;20494;-60
2021/10/05 09:10:14;;;;;;;1.77;1.38;;;;;;;20.27;44.78;99510.63;5064928;28;20049;-59
2021/10/05 09:12:43;;;;;;;1.65;1.20;;;;;;;21.74;42.49;99506.63;5070047;28;20064;-60
2021/10/05 09:15:11;;;;;;;1.75;1.02;;;;;;;22.51;40.54;99502.81;5059495;28;20068;-59
2021/10/05 09:17:39;;;;;;;3.00;1.02;;;;;;;21.72;42.32;99494.09;5061474;28;20057;-60
2021/10/05 09:20:19;;;;;;;2.03;1.02;;;;;;;20.81;43.82;99492.81;5062128;28;20072;-60
2021/10/05 09:23:00;;;;;;;2.42;0.95;;;;;;;20.67;44.32;99502.16;5059414;28;20457;-61
2021/10/05 09:25:30;;;;;;;2.90;1.05;;;;;;;20.73;44.76;99496.91;5055912;28;20088;-59
2021/10/05 09:27:58;;;;;;;1.58;1.00;;;;;;;20.10;45.65;99499.34;5054926;28;20431;-60
2021/10/05 09:30:26;;;;;;;3.42;1.52;;;;;;;19.80;45.73;99486.38;5069886;28;20061;-60
2021/10/05 09:33:02;;;;;;;1.98;1.15;;;;;;;20.19;45.20;99480.75;5060257;28;20410;-59
2021/10/05 09:35:43;;;;;;;2.15;0.95;;;;;;;19.86;46.05;99482.75;5050257;28;20061;-60
2021/10/05 09:38:12;;;;;;;2.05;1.27;;;;;;;19.94;45.63;99480.72;5065578;28;20057;-60
2021/10/05 09:40:40;;;;;;;2.30;1.00;;;;;;;19.63;46.42;99487.91;5069370;28;20089;-60
2021/10/05 09:43:19;;;;;;;2.10;1.42;;;;;;;20.19;45.18;99489.22;5063657;28;20060;-60
2021/10/05 09:45:46;;;;;;;1.60;1.10;;;;;;;21.44;42.70;99478.84;5065382;28;20068;-60
2021/10/05 09:48:14;;;;;;;2.05;0.95;;;;;;;21.02;43.22;99484.28;5062398;28;20485;-60
2021/10/05 09:50:43;;;;;;;2.13;0.93;;;;;;;21.08;42.82;99485.47;5069801;28;20060;-60
2021/10/05 09:53:13;;;;;;;1.77;1.00;;;;;;;21.12;42.70;99485.44;5062188;28;20060;-60
2021/10/05 09:55:45;;;;;;;1.65;1.05;;;;;;;21.26;42.69;99481.75;5069605;28;20072;-60
2021/10/05 09:58:15;;;;;;;2.50;1.35;;;;;;;21.83;41.75;99478.59;5068216;28;20049;-60
2021/10/05 10:00:43;;;;;;;;;;;;;;;22.53;40.31;99468.31;5060406;28;20049;-59
2021/10/05 10:03:10;;;;;;;2.55;1.20;;;;;;;23.66;38.26;99470.22;5063619;28;19924;-60
2021/10/05 10:05:40;;;;;;;2.00;1.20;;;;;;;26.17;32.73;99453.97;5054495;28;20044;-60
2021/10/05 10:08:09;;;;;;;3.08;0.90;;;;;;;26.66;32.37;99453.94;5066594;28;20415;-60
2021/10/05 10:10:39;;;;;;;1.92;1.05;;;;;;;24.81;33.61;99468.34;5060045;28;20045;-60
2021/10/05 10:13:09;;;;;;;1.75;1.38;;;;;;;25.61;32.99;99452.00;5051773;28;20077;-60
2021/10/05 10:15:39;;;;;;;2.35;1.40;;;;;;;28.39;29.21;99458.09;5067726;28;20061;-60
2021/10/05 10:18:08;;;;;;;2.50;1.15;;;;;;;29.22;27.79;99443.69;5059315;28;20502;-60
2021/10/05 10:20:37;;;;;;;3.03;1.58;;;;;;;30.74;25.45;99440.75;5054809;28;20418;-58
2021/10/05 10:23:18;;;;;;;2.50;1.13;;;;;;;30.02;26.11;99439.31;5067065;28;20056;-60
2021/10/05 10:25:53;;;;;;;2.55;1.45;;;;;;;31.46;24.03;99437.50;5070372;28;20056;-60
2021/10/05 10:28:27;;;;;;;2.15;1.38;;;;;;;32.42;23.24;99418.78;5066371;28;20056;-61
2021/10/05 10:30:56;;;;;;;2.38;1.33;;;;;;;32.59;22.99;99424.94;5063541;28;20060;-60
2021/10/05 10:33:25;;;;;;;4.68;1.73;;;;;;;33.45;21.27;99406.69;5058910;28;20052;-61
2021/10/05 10:35:54;;;;;;;1.48;1.20;;;;;;;33.15;22.00;99406.66;5072035;28;20057;-60
2021/10/05 10:38:24;;;;;;;;;;;;;;;33.96;21.31;99405.38;5072214;28;20056;-61
2021/10/05 10:40:51;;;;;;;2.38;1.13;;;;;;;34.28;20.48;99391.16;5069362;28;19947;-61
2021/10/05 10:43:21;;;;;;;1.40;1.10;;;;;;;34.39;19.97;99399.16;5067202;28;20755;-63
2021/10/05 10:45:51;;;;;;;2.40;1.42;;;;;;;34.32;19.93;99391.72;5064620;28;20056;-63
2021/10/05 10:48:32;;;;;;;2.53;1.20;;;;;;;34.09;20.15;99386.91;5071684;28;20057;-61
2021/10/05 10:51:02;;;;;;;1.40;1.20;;;;;;;35.59;18.72;99385.44;5055326;28;20060;-61
2021/10/05 10:53:39;;;;;;;2.60;1.40;;;;;;;35.84;18.37;99389.59;5069628;28;20061;-60
2021/10/05 10:56:07;;;;;;;1.88;1.30;;;;;;;35.57;18.62;99382.25;5067424;28;20063;-61
2021/10/05 10:58:40;;;;;;;2.55;1.30;;;;;;;33.96;20.06;99376.50;5063938;28;20067;-60
2021/10/05 11:01:08;;;;;;;1.92;1.30;;;;;;;34.17;20.34;99367.88;5056087;28;20071;-61
2021/10/05 11:03:37;;;;;;;1.70;1.30;;;;;;;34.09;20.33;99366.69;5072052;28;20068;-60
2021/10/05 11:06:13;;;;;;;2.22;1.30;;;;;;;34.31;19.39;99361.25;5072213;28;20057;-60
2021/10/05 11:08:53;;;;;;;1.52;1.27;;;;;;;34.23;19.71;99354.31;5062040;28;20067;-60
2021/10/05 11:11:29;;;;;;;1.70;1.30;;;;;;;34.03;20.00;99351.38;5065141;28;20057;-59
2021/10/05 11:14:01;;;;;;;2.28;1.30;;;;;;;34.37;19.93;99353.41;5062335;28;20061;-59
2021/10/05 11:16:28;;;;;;;1.88;1.38;;;;;;;34.52;19.60;99349.63;5069061;28;20069;-59
2021/10/05 11:19:12;;;;;;;1.75;1.13;;;;;;;33.38;21.03;99326.22;5059989;28;20060;-60
2021/10/05 11:21:42;;;;;;;2.53;1.38;;;;;;;33.33;21.42;99324.06;5069624;28;20049;-59
2021/10/05 11:24:13;;;;;;;2.88;1.40;;;;;;;33.24;20.70;99321.28;5070203;28;20053;-59
2021/10/05 11:26:43;;;;;;;2.92;1.60;;;;;;;33.83;20.34;99315.38;5071010;28;20056;-60
2021/10/05 11:29:11;;;;;;;2.42;1.33;;;;;;;34.66;19.54;99305.38;5072597;28;20509;-60
2021/10/05 11:31:46;;;;;;;2.95;1.30;;;;;;;34.25;19.93;99298.84;5072053;28;20057;-62
2021/10/05 11:34:14;;;;;;;2.78;1.52;;;;;;;34.29;19.69;99302.31;5072177;28;20052;-60
2021/10/05 11:36:42;;;;;;;2.05;1.40;;;;;;;32.68;21.29;99301.69;5056167;28;20061;-60
2021/10/05 11:39:19;;;;;;;2.10;1.48;;;;;;;33.20;20.78;99288.94;5067599;28;20522;-58
2021/10/05 11:41:49;;;;;;;2.38;1.50;;;;;;;34.98;19.45;99299.63;5059587;28;20060;-60